createdAt,value
2018-10-17T00:00:09.174Z,67.22
2018-10-17T00:02:37.691Z,67.16
2018-10-17T00:05:07.049Z,68.05
2018-10-17T00:07:35.563Z,67.89
2018-10-17T00:10:04.406Z,67.42
2018-10-17T00:12:32.886Z,67.62
2018-10-17T00:15:01.451Z,67.42
2018-10-17T00:17:30.106Z,67.20
2018-10-17T00:19:58.587Z,67.24
2018-10-17T00:22:27.191Z,67.63
2018-10-17T00:24:55.784Z,68.23
2018-10-17T00:27:24.352Z,67.74
2018-10-17T00:29:52.912Z,67.88
2018-10-17T00:32:21.404Z,68.47
2018-10-17T00:34:49.989Z,67.91
2018-10-17T00:37:18.466Z,68.26
2018-10-17T00:39:47.065Z,68.52
2018-10-17T00:42:15.576Z,68.95
2018-10-17T00:44:44.129Z,68.64
2018-10-17T00:47:12.671Z,69.02
2018-10-17T00:49:41.197Z,68.68
2018-10-17T00:52:09.963Z,69.34
2018-10-17T00:54:38.533Z,69.61
2018-10-17T00:57:07.062Z,69.37
2018-10-17T00:59:35.647Z,69.30
2018-10-17T01:02:04.227Z,69.43
2018-10-17T01:04:32.794Z,69.62
2018-10-17T01:07:01.364Z,69.55
2018-10-17T01:09:29.975Z,69.44
2018-10-17T01:11:58.550Z,69.81
2018-10-17T01:14:27.540Z,69.52
2018-10-17T01:16:56.059Z,69.18
2018-10-17T01:19:24.605Z,69.67
2018-10-17T01:21:53.156Z,70.10
2018-10-17T01:24:21.697Z,70.01
2018-10-17T01:26:50.183Z,70.26
2018-10-17T01:29:18.727Z,70.20
2018-10-17T01:31:47.264Z,70.67
2018-10-17T01:34:15.771Z,71.15
2018-10-17T01:36:44.277Z,71.37
2018-10-17T01:39:12.804Z,71.27
2018-10-17T01:41:41.376Z,71.24
2018-10-17T01:44:09.893Z,70.95
2018-10-17T01:46:38.381Z,71.48
2018-10-17T01:49:07.027Z,72.37
2018-10-17T01:51:35.499Z,71.54
2018-10-17T01:54:04.070Z,71.94
2018-10-17T01:56:32.675Z,72.09
2018-10-17T01:59:01.872Z,72.10
2018-10-17T02:01:30.413Z,72.63
2018-10-17T02:03:58.904Z,72.22
2018-10-17T02:06:27.463Z,72.37
2018-10-17T02:08:55.984Z,72.16
2018-10-17T02:11:24.562Z,71.18
2018-10-17T02:13:53.063Z,72.00
2018-10-17T02:16:21.590Z,72.23
2018-10-17T02:18:50.068Z,71.91
2018-10-17T02:21:18.676Z,71.86
2018-10-17T02:23:47.275Z,71.91
2018-10-17T02:26:15.852Z,72.46
2018-10-17T02:28:44.510Z,72.57
2018-10-17T02:31:13.068Z,72.16
2018-10-17T02:33:41.527Z,72.58
2018-10-17T02:36:10.062Z,72.34
2018-10-17T02:38:38.582Z,71.72
2018-10-17T02:41:07.156Z,71.52
2018-10-17T02:43:35.590Z,74.45
2018-10-17T02:46:04.090Z,72.41
2018-10-17T02:48:32.593Z,71.14
2018-10-17T02:51:01.109Z,71.37
2018-10-17T02:53:29.587Z,71.17
2018-10-17T02:55:58.151Z,71.98
2018-10-17T02:58:26.911Z,71.46
2018-10-17T03:00:55.533Z,72.95
2018-10-17T03:03:23.985Z,71.47
2018-10-17T03:05:52.511Z,71.06
2018-10-17T03:08:21.021Z,71.34
2018-10-17T03:10:49.690Z,72.08
2018-10-17T03:13:18.369Z,72.00
2018-10-17T03:15:46.800Z,71.75
2018-10-17T03:18:15.294Z,71.81
2018-10-17T03:20:43.883Z,71.83
2018-10-17T03:23:12.536Z,72.13
2018-10-17T03:25:41.092Z,72.06
2018-10-17T03:28:09.704Z,71.71
2018-10-17T03:30:38.278Z,73.99
2018-10-17T03:33:07.544Z,72.93
2018-10-17T03:35:37.308Z,72.38
2018-10-17T03:38:06.103Z,73.50
2018-10-17T03:40:34.658Z,73.08
2018-10-17T03:43:03.555Z,71.90
2018-10-17T03:45:32.120Z,75.02
2018-10-17T03:48:01.180Z,72.96
2018-10-17T03:50:29.901Z,73.54
2018-10-17T03:52:58.521Z,72.83
2018-10-17T03:55:27.179Z,72.91
2018-10-17T03:57:55.782Z,73.70
2018-10-17T04:00:24.399Z,72.97
2018-10-17T04:02:53.020Z,73.71
2018-10-17T04:05:21.507Z,74.10
2018-10-17T04:07:50.036Z,74.04
2018-10-17T04:10:18.635Z,75.47
2018-10-17T04:12:47.171Z,74.24
2018-10-17T04:15:15.667Z,76.64
2018-10-17T04:17:44.323Z,74.79
2018-10-17T04:20:12.806Z,75.53
2018-10-17T04:22:46.164Z,75.30
2018-10-17T04:25:15.687Z,76.20
2018-10-17T04:27:51.182Z,76.61
2018-10-17T04:30:19.804Z,75.81
2018-10-17T04:32:48.349Z,76.72
2018-10-17T04:35:16.917Z,76.24
2018-10-17T04:37:45.498Z,76.79
2018-10-17T04:40:14.031Z,76.12
2018-10-17T04:42:43.334Z,75.45
2018-10-17T04:45:12.055Z,77.82
2018-10-17T04:47:40.693Z,76.87
2018-10-17T04:50:10.355Z,77.36
2018-10-17T04:52:39.231Z,78.84
2018-10-17T04:55:08.528Z,78.10
2018-10-17T04:57:37.086Z,77.42
2018-10-17T05:00:07.753Z,77.21
2018-10-17T05:02:36.459Z,78.02
2018-10-17T05:05:05.308Z,78.01
2018-10-17T05:07:33.958Z,78.00
2018-10-17T05:10:02.623Z,78.28
2018-10-17T05:12:31.428Z,77.61
2018-10-17T05:15:00.130Z,78.05
2018-10-17T05:17:28.794Z,78.54
2018-10-17T05:19:57.329Z,79.21
2018-10-17T05:22:25.844Z,78.89
2018-10-17T05:24:54.406Z,79.01
2018-10-17T05:27:22.930Z,78.92
2018-10-17T05:29:51.798Z,79.59
2018-10-17T05:32:20.258Z,78.44
2018-10-17T05:34:48.760Z,79.80
2018-10-17T05:37:17.418Z,79.09
2018-10-17T05:39:45.890Z,79.04
2018-10-17T05:42:14.515Z,79.13
2018-10-17T05:44:43.099Z,79.63
2018-10-17T05:47:11.785Z,79.77
2018-10-17T05:49:40.412Z,79.85
2018-10-17T05:52:09.499Z,79.54
2018-10-17T05:54:38.011Z,80.00
2018-10-17T05:57:07.185Z,79.17
2018-10-17T05:59:35.740Z,79.96
2018-10-17T06:02:08.522Z,80.36
2018-10-17T06:04:37.095Z,80.54
2018-10-17T06:07:05.972Z,80.02
2018-10-17T06:09:34.514Z,80.82
2018-10-17T06:12:03.042Z,80.61
2018-10-17T06:14:31.714Z,80.24
2018-10-17T06:17:00.378Z,80.54
2018-10-17T06:19:28.867Z,80.53
2018-10-17T06:21:57.403Z,80.64
2018-10-17T06:24:25.921Z,80.25
2018-10-17T06:26:54.536Z,80.00
2018-10-17T06:29:23.163Z,79.51
2018-10-17T06:31:51.789Z,79.83
2018-10-17T06:34:20.561Z,80.21
2018-10-17T06:36:49.670Z,80.18
2018-10-17T06:39:18.247Z,80.39
2018-10-17T06:41:47.602Z,80.07
2018-10-17T06:44:16.163Z,79.98
2018-10-17T06:46:44.661Z,79.34
2018-10-17T06:49:13.349Z,79.57
2018-10-17T06:51:41.890Z,79.63
2018-10-17T06:54:10.481Z,79.09
2018-10-17T06:56:39.083Z,79.24
2018-10-17T06:59:07.729Z,79.71
2018-10-17T07:01:36.902Z,79.43
2018-10-17T07:04:05.635Z,79.84
2018-10-17T07:06:34.293Z,79.77
2018-10-17T07:09:04.164Z,79.56
2018-10-17T07:11:32.709Z,79.29
2018-10-17T07:14:01.333Z,79.65
2018-10-17T07:16:29.859Z,79.74
2018-10-17T07:18:58.406Z,79.67
2018-10-17T07:21:26.899Z,80.50
2018-10-17T07:23:55.493Z,79.72
2018-10-17T07:26:24.053Z,80.00
2018-10-17T07:28:53.000Z,79.95
2018-10-17T07:31:21.666Z,79.89
2018-10-17T07:33:50.187Z,80.23
2018-10-17T07:36:19.495Z,80.24
2018-10-17T07:38:48.066Z,80.80
2018-10-17T07:41:16.662Z,80.04
2018-10-17T07:43:45.855Z,80.15
2018-10-17T07:46:14.398Z,80.16
2018-10-17T07:48:42.999Z,79.80
2018-10-17T07:51:11.565Z,80.41
2018-10-17T07:53:41.328Z,81.04
2018-10-17T07:56:10.849Z,80.77
2018-10-17T07:58:39.395Z,79.19
2018-10-17T08:01:07.923Z,78.44
2018-10-17T08:03:36.490Z,78.84
2018-10-17T08:06:05.768Z,78.11
2018-10-17T08:08:34.339Z,77.57
2018-10-17T08:11:03.480Z,76.76
2018-10-17T08:13:32.112Z,77.33
2018-10-17T08:16:00.709Z,76.79
2018-10-17T08:18:30.020Z,75.64
2018-10-17T08:20:58.553Z,75.57
2018-10-17T08:23:27.109Z,75.14
2018-10-17T08:25:55.616Z,74.26
2018-10-17T08:28:24.204Z,74.50
2018-10-17T08:30:52.808Z,74.41
2018-10-17T08:33:22.361Z,74.07
2018-10-17T08:35:51.025Z,73.72
2018-10-17T08:38:19.486Z,73.93
2018-10-17T08:40:48.091Z,74.03
2018-10-17T08:43:16.681Z,73.04
2018-10-17T08:45:45.258Z,73.55
2018-10-17T08:48:13.754Z,73.27
2018-10-17T08:50:43.267Z,73.67
2018-10-17T08:53:11.809Z,72.75
2018-10-17T08:55:40.402Z,73.17
2018-10-17T08:58:09.041Z,72.64
2018-10-17T09:00:37.574Z,72.49
2018-10-17T09:03:06.259Z,72.78
2018-10-17T09:05:35.455Z,72.14
2018-10-17T09:08:05.575Z,72.29
2018-10-17T09:10:34.059Z,72.19
2018-10-17T09:13:02.641Z,72.88
2018-10-17T09:15:31.179Z,72.20
2018-10-17T09:17:59.723Z,71.52
2018-10-17T09:20:28.287Z,71.70
2018-10-17T09:22:56.810Z,71.17
2018-10-17T09:25:25.463Z,70.94
2018-10-17T09:27:54.123Z,70.54
2018-10-17T09:30:22.766Z,71.25
2018-10-17T09:32:51.285Z,70.73
2018-10-17T09:35:20.019Z,71.14
2018-10-17T09:37:48.479Z,69.29
2018-10-17T09:40:17.083Z,68.65
2018-10-17T09:42:45.715Z,69.62
2018-10-17T09:45:14.274Z,69.31
2018-10-17T09:47:49.289Z,69.29
2018-10-17T09:50:17.826Z,68.19
2018-10-17T09:52:46.336Z,68.76
2018-10-17T09:55:14.939Z,68.36
2018-10-17T09:57:43.446Z,68.11
2018-10-17T10:00:17.093Z,68.15
2018-10-17T10:02:45.575Z,67.64
2018-10-17T10:05:14.201Z,67.67
2018-10-17T10:07:42.742Z,67.59
2018-10-17T10:10:11.361Z,67.56
2018-10-17T10:12:39.911Z,67.05
2018-10-17T10:15:08.694Z,66.39
2018-10-17T10:17:37.340Z,67.39
2018-10-17T10:20:05.915Z,67.09
2018-10-17T10:22:34.492Z,67.15
2018-10-17T10:25:03.368Z,66.23
2018-10-17T10:27:31.952Z,67.81
2018-10-17T10:30:00.510Z,67.62
2018-10-17T10:32:29.039Z,67.12
2018-10-17T10:34:57.601Z,66.54
2018-10-17T10:37:26.097Z,66.07
2018-10-17T10:39:54.676Z,65.40
2018-10-17T10:42:23.207Z,65.94
2018-10-17T10:44:51.768Z,64.97
2018-10-17T10:47:20.265Z,65.54
2018-10-17T10:49:48.790Z,65.44
2018-10-17T10:52:17.289Z,65.07
2018-10-17T10:54:45.794Z,64.89
2018-10-17T10:57:14.373Z,64.82
2018-10-17T10:59:43.027Z,63.88
2018-10-17T11:02:11.579Z,64.35
2018-10-17T11:04:40.235Z,63.92
2018-10-17T11:07:08.821Z,63.55
2018-10-17T11:09:37.321Z,64.19
2018-10-17T11:12:06.028Z,64.65
2018-10-17T11:14:34.706Z,64.90
2018-10-17T11:17:03.131Z,63.93
2018-10-17T11:19:31.631Z,64.26
2018-10-17T11:22:00.344Z,64.52
2018-10-17T11:24:28.791Z,65.16
2018-10-17T11:26:57.344Z,64.20
2018-10-17T11:29:25.917Z,63.18
2018-10-17T11:31:54.425Z,63.08
2018-10-17T11:34:22.975Z,63.58
2018-10-17T11:36:51.558Z,64.58
2018-10-17T11:39:20.081Z,64.20
2018-10-17T11:41:48.542Z,63.64
2018-10-17T11:44:17.119Z,62.68
2018-10-17T11:46:45.605Z,64.03
2018-10-17T11:49:14.094Z,64.07
2018-10-17T11:51:42.637Z,62.61
2018-10-17T11:54:11.175Z,62.87
2018-10-17T11:56:39.735Z,62.48
2018-10-17T11:59:08.287Z,63.27
2018-10-17T12:01:36.807Z,64.35
2018-10-17T12:04:05.580Z,63.78
2018-10-17T12:06:33.907Z,64.26
2018-10-17T12:09:02.527Z,65.36
2018-10-17T12:11:31.161Z,65.46
2018-10-17T12:13:59.578Z,65.78
2018-10-17T12:16:28.245Z,64.70
2018-10-17T12:18:56.898Z,64.60
2018-10-17T12:21:25.526Z,64.87
2018-10-17T12:23:54.192Z,64.69
2018-10-17T12:26:22.721Z,63.42
2018-10-17T12:28:51.327Z,63.47
2018-10-17T12:31:19.821Z,61.28
2018-10-17T12:33:48.380Z,61.55
2018-10-17T12:36:16.926Z,61.69
2018-10-17T12:38:45.462Z,61.04
2018-10-17T12:41:14.026Z,61.98
2018-10-17T12:43:42.559Z,64.32
2018-10-17T12:46:11.029Z,64.16
2018-10-17T12:48:39.567Z,63.66
2018-10-17T12:51:08.115Z,63.72
2018-10-17T12:53:36.653Z,64.71
2018-10-17T12:56:05.505Z,65.72
2018-10-17T12:58:33.949Z,65.15
2018-10-17T13:01:02.674Z,64.68
2018-10-17T13:03:31.227Z,65.19
2018-10-17T13:05:59.797Z,65.64
2018-10-17T13:08:28.371Z,65.34
2018-10-17T13:10:58.080Z,65.22
2018-10-17T13:13:26.648Z,64.88
2018-10-17T13:15:55.210Z,65.00
2018-10-17T13:18:23.874Z,64.86
2018-10-17T13:20:52.362Z,64.84
2018-10-17T13:23:21.023Z,65.40
2018-10-17T13:25:49.599Z,66.42
2018-10-17T13:28:18.202Z,66.48
2018-10-17T13:30:46.759Z,66.09
2018-10-17T13:33:15.378Z,65.76
2018-10-17T13:35:43.979Z,65.30
2018-10-17T13:38:12.578Z,64.86
2018-10-17T13:40:41.078Z,65.67
2018-10-17T13:43:09.850Z,65.96
2018-10-17T13:45:38.352Z,64.69
2018-10-17T13:48:06.845Z,65.42
2018-10-17T13:50:35.378Z,66.25
2018-10-17T13:53:03.980Z,64.69
2018-10-17T13:55:32.547Z,64.92
2018-10-17T13:58:01.335Z,65.35
2018-10-17T14:00:29.866Z,64.83
2018-10-17T14:02:58.576Z,64.38
2018-10-17T14:05:27.263Z,65.04
2018-10-17T14:07:55.968Z,65.95
2018-10-17T14:10:24.506Z,65.42
2018-10-17T14:12:53.261Z,66.18
2018-10-17T14:15:21.922Z,66.33
2018-10-17T14:17:50.507Z,66.21
2018-10-17T14:20:19.020Z,66.03
2018-10-17T14:22:47.745Z,67.21
2018-10-17T14:25:16.220Z,67.39
2018-10-17T14:27:44.851Z,67.23
2018-10-17T14:30:13.499Z,66.46
2018-10-17T14:32:42.065Z,67.30
2018-10-17T14:35:11.946Z,67.23
2018-10-17T14:37:40.526Z,66.67
2018-10-17T14:40:09.886Z,67.00
2018-10-17T14:42:38.578Z,67.16
2018-10-17T14:45:08.621Z,67.31
2018-10-17T14:47:37.097Z,67.07
2018-10-17T14:50:05.684Z,67.09
2018-10-17T14:52:34.245Z,67.08
2018-10-17T14:55:02.737Z,67.27
2018-10-17T14:57:31.407Z,67.93
2018-10-17T14:59:59.949Z,67.04
2018-10-17T15:02:28.476Z,67.48
2018-10-17T15:04:57.105Z,67.53
2018-10-17T15:07:25.695Z,67.32
2018-10-17T15:09:54.258Z,67.29
2018-10-17T15:12:22.753Z,67.21
2018-10-17T15:14:51.323Z,67.39
2018-10-17T15:17:19.917Z,68.32
2018-10-17T15:19:48.443Z,68.12
2018-10-17T15:22:17.074Z,68.52
2018-10-17T15:24:45.705Z,68.78
2018-10-17T15:27:14.576Z,69.88
2018-10-17T15:29:43.833Z,70.10
2018-10-17T15:32:12.365Z,69.22
2018-10-17T15:34:40.907Z,69.95
2018-10-17T15:37:10.311Z,70.48
2018-10-17T15:39:38.818Z,70.74
2018-10-17T15:42:07.525Z,69.00
2018-10-17T15:44:36.080Z,69.75
2018-10-17T15:47:04.829Z,68.58
2018-10-17T15:49:33.436Z,68.88
2018-10-17T15:52:01.995Z,70.08
2018-10-17T15:54:30.554Z,69.48
2018-10-17T15:56:59.196Z,70.32
2018-10-17T15:59:27.802Z,71.08
2018-10-17T16:01:56.405Z,70.40
2018-10-17T16:04:24.948Z,70.66
2018-10-17T16:06:53.663Z,70.63
2018-10-17T16:09:22.365Z,72.08
2018-10-17T16:11:50.862Z,71.42
2018-10-17T16:14:19.684Z,71.84
2018-10-17T16:16:48.255Z,71.37
2018-10-17T16:19:16.826Z,71.15
2018-10-17T16:21:45.349Z,71.88
2018-10-17T16:24:14.667Z,71.57
2018-10-17T16:26:43.157Z,71.70
2018-10-17T16:29:11.669Z,72.24
2018-10-17T16:31:40.357Z,71.89
2018-10-17T16:34:08.962Z,72.16
2018-10-17T16:36:37.568Z,72.93
2018-10-17T16:39:08.673Z,73.14
2018-10-17T16:41:37.285Z,73.28
2018-10-17T16:44:05.911Z,73.81
2018-10-17T16:46:34.637Z,74.30
2018-10-17T16:49:03.274Z,73.95
2018-10-17T16:51:31.933Z,74.32
2018-10-17T16:54:00.545Z,75.08
2018-10-17T16:56:29.129Z,74.97
2018-10-17T16:59:04.113Z,75.38
2018-10-17T17:01:32.693Z,75.94
2018-10-17T17:04:01.320Z,75.12
2018-10-17T17:06:29.932Z,75.74
2018-10-17T17:08:58.517Z,75.64
2018-10-17T17:11:26.989Z,76.41
2018-10-17T17:13:55.577Z,77.08
2018-10-17T17:16:24.110Z,76.94
2018-10-17T17:18:52.975Z,77.78
2018-10-17T17:21:21.870Z,78.04
2018-10-17T17:23:50.578Z,77.90
2018-10-17T17:26:19.374Z,78.08
2018-10-17T17:28:48.039Z,77.93
2018-10-17T17:31:16.936Z,79.07
2018-10-17T17:33:45.641Z,79.30
2018-10-17T17:36:14.197Z,79.54
2018-10-17T17:38:42.765Z,79.36
2018-10-17T17:41:11.647Z,78.74
2018-10-17T17:43:40.250Z,79.47
2018-10-17T17:46:08.795Z,79.64
2018-10-17T17:48:37.692Z,79.89
2018-10-17T17:51:06.407Z,79.33
2018-10-17T17:53:35.134Z,79.98
2018-10-17T17:56:03.750Z,79.20
2018-10-17T17:58:32.934Z,80.17
2018-10-17T18:01:01.677Z,79.97
2018-10-17T18:03:30.469Z,80.31
2018-10-17T18:05:59.216Z,80.36
2018-10-17T18:08:28.551Z,80.99
2018-10-17T18:10:57.048Z,80.01
2018-10-17T18:13:25.789Z,80.24
2018-10-17T18:15:54.508Z,80.83
2018-10-17T18:18:23.148Z,80.70
2018-10-17T18:20:51.937Z,81.17
2018-10-17T18:23:20.562Z,80.35
2018-10-17T18:25:49.370Z,80.82
2018-10-17T18:28:18.298Z,80.74
2018-10-17T18:30:47.193Z,80.75
2018-10-17T18:33:15.766Z,80.75
2018-10-17T18:35:44.259Z,81.02
2018-10-17T18:38:12.889Z,81.44
2018-10-17T18:40:41.474Z,81.62
2018-10-17T18:43:10.029Z,81.24
2018-10-17T18:45:38.682Z,81.86
2018-10-17T18:48:08.068Z,82.40
2018-10-17T18:50:36.763Z,82.59
2018-10-17T18:53:05.490Z,82.74
2018-10-17T18:55:34.379Z,82.86
2018-10-17T18:58:03.361Z,82.90
2018-10-17T19:00:31.917Z,82.85
2018-10-17T19:03:00.621Z,82.38
2018-10-17T19:05:29.521Z,82.28
2018-10-17T19:07:58.114Z,81.94
2018-10-17T19:10:26.741Z,82.13
2018-10-17T19:12:55.506Z,82.64
2018-10-17T19:15:24.286Z,82.44
2018-10-17T19:17:52.974Z,82.33
2018-10-17T19:20:21.881Z,82.91
2018-10-17T19:22:50.521Z,83.22
2018-10-17T19:25:19.171Z,82.75
2018-10-17T19:27:47.754Z,82.93
2018-10-17T19:30:16.464Z,83.13
2018-10-17T19:32:44.945Z,82.80
2018-10-17T19:35:13.442Z,83.21
2018-10-17T19:37:41.958Z,83.56
2018-10-17T19:40:11.219Z,83.47
2018-10-17T19:42:39.682Z,84.16
2018-10-17T19:45:09.295Z,84.16
2018-10-17T19:47:37.825Z,84.37
2018-10-17T19:50:06.858Z,84.61
2018-10-17T19:52:35.445Z,84.38
2018-10-17T19:55:04.014Z,84.72
2018-10-17T19:57:32.538Z,84.79
2018-10-17T20:00:01.066Z,84.68
2018-10-17T20:02:29.549Z,84.93
2018-10-17T20:04:58.113Z,84.93
2018-10-17T20:07:26.623Z,84.89
2018-10-17T20:09:55.210Z,85.16
2018-10-17T20:12:23.707Z,85.25
2018-10-17T20:14:52.218Z,85.31
2018-10-17T20:17:20.836Z,85.58
2018-10-17T20:19:49.329Z,85.91
2018-10-17T20:22:17.840Z,85.97
2018-10-17T20:24:46.457Z,86.45
2018-10-17T20:27:15.173Z,86.09
2018-10-17T20:29:43.609Z,85.81
2018-10-17T20:32:12.151Z,85.64
2018-10-17T20:34:40.728Z,87.00
2018-10-17T20:37:09.314Z,86.63
2018-10-17T20:39:37.897Z,85.07
2018-10-17T20:42:06.736Z,87.12
2018-10-17T20:44:35.288Z,86.82
2018-10-17T20:47:03.984Z,86.52
2018-10-17T20:49:32.447Z,86.69
2018-10-17T20:52:00.941Z,85.99
2018-10-17T20:54:29.433Z,85.57
2018-10-17T20:56:58.040Z,85.40
2018-10-17T20:59:26.567Z,86.47
2018-10-17T21:01:55.149Z,87.05
2018-10-17T21:04:23.729Z,87.04
2018-10-17T21:06:52.264Z,87.06
2018-10-17T21:09:20.782Z,86.36
2018-10-17T21:11:49.370Z,86.53
2018-10-17T21:14:17.918Z,86.03
2018-10-17T21:16:46.389Z,84.18
2018-10-17T21:19:14.890Z,84.06
2018-10-17T21:21:43.452Z,84.32
2018-10-17T21:24:11.972Z,84.23
2018-10-17T21:26:40.546Z,85.44
2018-10-17T21:29:09.095Z,85.12
2018-10-17T21:31:37.577Z,85.27
2018-10-17T21:34:06.133Z,85.96
2018-10-17T21:36:34.722Z,86.33
2018-10-17T21:39:03.951Z,86.85
2018-10-17T21:41:33.079Z,87.37
2018-10-17T21:44:02.283Z,86.69
2018-10-17T21:46:31.397Z,86.69
2018-10-17T21:49:00.160Z,85.39
2018-10-17T21:51:28.895Z,85.31
2018-10-17T21:53:57.475Z,84.40
2018-10-17T21:56:26.091Z,84.60
2018-10-17T21:58:54.662Z,84.02
2018-10-17T22:01:23.244Z,84.13
2018-10-17T22:03:51.836Z,83.90
2018-10-17T22:06:20.408Z,83.80
2018-10-17T22:08:49.067Z,84.36
2018-10-17T22:11:17.629Z,83.85
2018-10-17T22:13:46.231Z,83.61
2018-10-17T22:16:14.823Z,83.79
2018-10-17T22:18:43.434Z,83.87
2018-10-17T22:21:12.017Z,83.82
2018-10-17T22:23:40.622Z,83.31
2018-10-17T22:26:09.502Z,82.88
2018-10-17T22:28:38.059Z,82.88
2018-10-17T22:31:06.670Z,83.09
2018-10-17T22:33:35.299Z,82.30
2018-10-17T22:36:03.897Z,81.92
2018-10-17T22:38:32.511Z,81.92
2018-10-17T22:41:01.158Z,82.00
2018-10-17T22:43:29.713Z,82.08
2018-10-17T22:45:58.329Z,81.73
2018-10-17T22:48:26.885Z,82.17
2018-10-17T22:50:55.476Z,81.67
2018-10-17T22:53:24.079Z,81.87
2018-10-17T22:55:52.684Z,81.42
2018-10-17T22:58:21.278Z,82.24
2018-10-17T23:00:50.051Z,82.32
2018-10-17T23:03:18.835Z,81.91
2018-10-17T23:05:47.477Z,81.26
2018-10-17T23:08:16.244Z,81.78
2018-10-17T23:10:44.792Z,81.01
2018-10-17T23:13:13.420Z,81.98
2018-10-17T23:15:42.016Z,81.86
2018-10-17T23:18:10.646Z,81.83
2018-10-17T23:20:39.202Z,81.42
2018-10-17T23:23:07.841Z,81.34
2018-10-17T23:25:36.407Z,81.04
2018-10-17T23:28:05.199Z,81.02
2018-10-17T23:30:33.802Z,81.56
2018-10-17T23:33:02.377Z,81.04
2018-10-17T23:35:30.892Z,80.72
2018-10-17T23:37:59.580Z,81.60
2018-10-17T23:40:28.112Z,81.19
2018-10-17T23:42:56.722Z,81.18
2018-10-17T23:45:26.035Z,80.71
2018-10-17T23:47:55.324Z,80.76
2018-10-17T23:50:23.964Z,81.22
2018-10-17T23:52:52.470Z,81.42
2018-10-17T23:55:20.949Z,81.80
2018-10-17T23:57:52.510Z,81.43
